Time;durP1;ratioP1;P1;durP2;ratioP2;P2;SDS_P1;SDS_P2;PMS_P1;PMS_P2;Temp;Humidity;BMP_temperature;BMP_pressure;BME280_temperature;BME280_humidity;BME280_pressure;Samples;Min_cycle;Max_cycle;Signal;HPM_P1;HPM_P2
2024/01/03 00:00:08;;;;;;;27.00;15.77;;;5.20;57.90;;;;;;5079986;28;20252;-67
2024/01/03 00:02:37;;;;;;;25.87;14.40;;;5.30;57.40;;;;;;5099234;28;20227;-68
2024/01/03 00:05:09;;;;;;;22.13;14.77;;;5.30;57.40;;;;;;5098135;28;20219;-68
2024/01/03 00:07:38;;;;;;;24.80;15.07;;;5.30;56.90;;;;;;5089950;28;20223;-69
2024/01/03 00:10:19;;;;;;;20.17;13.97;;;5.30;57.00;;;;;;5097963;28;20230;-67
2024/01/03 00:12:48;;;;;;;22.43;14.80;;;5.40;57.00;;;;;;5077905;28;20298;-68
2024/01/03 00:15:56;;;;;;;22.90;15.17;;;5.50;54.40;;;;;;5092548;28;20761;-68
2024/01/03 00:18:33;;;;;;;23.90;15.27;;;5.40;55.80;;;;;;5092485;28;20311;-67
2024/01/03 00:21:04;;;;;;;26.07;16.13;;;5.40;56.00;;;;;;5104024;27;20291;-68
2024/01/03 00:23:38;;;;;;;23.83;15.13;;;5.30;55.70;;;;;;5123053;27;20218;-67
2024/01/03 00:26:10;;;;;;;26.47;15.07;;;5.40;56.40;;;;;;5097346;28;20237;-69
2024/01/03 00:28:41;;;;;;;23.90;15.00;;;5.40;55.50;;;;;;5100731;28;20620;-66
2024/01/03 00:31:11;;;;;;;25.33;15.00;;;5.40;56.00;;;;;;5110479;28;20241;-66
2024/01/03 00:33:42;;;;;;;22.63;15.10;;;5.40;55.10;;;;;;5118969;27;20226;-67
2024/01/03 00:36:16;;;;;;;26.77;16.03;;;5.40;56.10;;;;;;5097275;28;20233;-66
2024/01/03 00:38:46;;;;;;;24.87;15.13;;;5.40;55.50;;;;;;5101246;27;20562;-67
2024/01/03 00:41:14;;;;;;;23.13;15.83;;;5.30;55.80;;;;;;5098240;28;20261;-67
2024/01/03 00:43:43;;;;;;;25.77;15.37;;;5.30;57.30;;;;;;5113614;27;20215;-68
2024/01/03 00:46:13;;;;;;;26.73;16.33;;;5.30;56.00;;;;;;5101840;28;20295;-68
2024/01/03 00:48:41;;;;;;;25.40;15.77;;;5.50;56.30;;;;;;5089454;28;20226;-68
2024/01/03 00:51:12;;;;;;;25.43;16.03;;;5.40;56.80;;;;;;5122504;28;20218;-67
2024/01/03 00:53:40;;;;;;;26.10;17.47;;;5.30;57.50;;;;;;5103075;28;20969;-68
2024/01/03 00:56:09;;;;;;;29.83;16.93;;;5.30;57.10;;;;;;5121121;27;20226;-68
2024/01/03 00:58:38;;;;;;;26.87;16.50;;;5.30;56.20;;;;;;5123713;27;20656;-67
2024/01/03 01:01:06;;;;;;;25.20;16.40;;;5.40;56.00;;;;;;5107518;27;20927;-67
2024/01/03 01:03:35;;;;;;;27.57;16.77;;;5.30;57.00;;;;;;5100686;28;20226;-67
2024/01/03 01:06:05;;;;;;;26.17;16.60;;;5.40;57.80;;;;;;5105438;27;20645;-66
2024/01/03 01:08:35;;;;;;;25.07;15.97;;;5.40;56.00;;;;;;5111226;27;20230;-66
2024/01/03 01:11:04;;;;;;;30.10;16.57;;;5.50;55.00;;;;;;5103690;27;20230;-68
2024/01/03 01:13:32;;;;;;;25.63;16.03;;;5.30;56.90;;;;;;5128800;27;20713;-66
2024/01/03 01:16:01;;;;;;;25.27;15.93;;;5.30;57.00;;;;;;5126750;27;20771;-67
2024/01/03 01:18:30;;;;;;;26.67;16.77;;;5.30;57.70;;;;;;5100476;27;20234;-67
2024/01/03 01:20:59;;;;;;;25.50;16.10;;;5.10;57.20;;;;;;5101798;27;20322;-67
2024/01/03 01:23:27;;;;;;;24.47;17.20;;;5.20;57.90;;;;;;5115646;27;20963;-67
2024/01/03 01:25:58;;;;;;;26.53;17.07;;;5.40;57.40;;;;;;5102353;27;20228;-67
2024/01/03 01:28:26;;;;;;;29.43;17.53;;;5.20;56.80;;;;;;5102567;27;20697;-67
2024/01/03 01:30:55;;;;;;;23.17;16.00;;;5.20;69.90;;;;;;5116878;27;20226;-68
2024/01/03 01:33:24;;;;;;;24.37;16.93;;;5.30;56.50;;;;;;5106045;27;20263;-67
2024/01/03 01:35:52;;;;;;;26.27;18.40;;;5.30;56.10;;;;;;5121819;27;20520;-67
2024/01/03 01:38:21;;;;;;;26.83;16.67;;;5.30;56.00;;;;;;5124068;27;20272;-67
2024/01/03 01:40:50;;;;;;;25.90;17.20;;;5.40;56.00;;;;;;5105522;27;20277;-67
2024/01/03 01:43:20;;;;;;;30.23;17.47;;;5.30;56.30;;;;;;5115869;27;20314;-67
2024/01/03 01:45:49;;;;;;;26.37;17.23;;;5.30;56.80;;;;;;5106088;27;20231;-67
2024/01/03 01:48:18;;;;;;;26.07;17.87;;;5.30;56.90;;;;;;5103461;27;20317;-67
2024/01/03 01:50:48;;;;;;;25.20;17.10;;;5.30;55.70;;;;;;5104773;27;20714;-67
2024/01/03 01:53:17;;;;;;;28.23;17.40;;;5.40;56.00;;;;;;5123743;27;20225;-67
2024/01/03 01:55:46;;;;;;;27.47;17.10;;;5.30;54.90;;;;;;5100506;27;20223;-66
2024/01/03 01:58:14;;;;;;;25.77;16.93;;;5.40;56.20;;;;;;5106034;27;20233;-66
2024/01/03 02:00:45;;;;;;;27.37;17.90;;;5.40;55.60;;;;;;5100788;27;20306;-66
2024/01/03 02:03:13;;;;;;;24.63;16.50;;;5.40;55.10;;;;;;5119150;27;20341;-67
2024/01/03 02:05:45;;;;;;;28.10;16.33;;;5.30;55.20;;;;;;5102253;27;20338;-66
2024/01/03 02:08:14;;;;;;;27.13;17.07;;;5.40;55.30;;;;;;5117319;27;20242;-66
2024/01/03 02:10:42;;;;;;;26.57;16.93;;;5.40;55.50;;;;;;5130138;27;20817;-66
2024/01/03 02:13:11;;;;;;;27.30;16.43;;;5.40;55.40;;;;;;5096563;27;20302;-67
2024/01/03 02:15:39;;;;;;;25.67;16.47;;;5.50;55.30;;;;;;5124292;27;20226;-66
2024/01/03 02:18:11;;;;;;;28.30;16.17;;;5.40;54.90;;;;;;5103864;27;20222;-67
2024/01/03 02:20:41;;;;;;;24.20;16.00;;;5.40;54.50;;;;;;5116638;27;20224;-67
2024/01/03 02:23:11;;;;;;;24.93;16.23;;;5.40;55.20;;;;;;5101057;27;20793;-67
2024/01/03 02:25:41;;;;;;;27.13;17.60;;;5.40;55.90;;;;;;5077475;28;20264;-67
2024/01/03 02:28:10;;;;;;;27.73;17.37;;;5.40;55.30;;;;;;5085791;28;20753;-67
2024/01/03 02:30:41;;;;;;;30.23;17.47;;;5.50;55.60;;;;;;5104080;28;20326;-66
2024/01/03 02:33:09;;;;;;;25.37;17.10;;;5.50;55.50;;;;;;5098705;28;20227;-67
2024/01/03 02:35:38;;;;;;;28.80;18.00;;;5.50;55.20;;;;;;5085576;28;20220;-66
2024/01/03 02:38:07;;;;;;;23.67;16.67;;;5.50;55.30;;;;;;5083155;28;20230;-66
2024/01/03 02:40:37;;;;;;;32.37;18.17;;;5.40;56.30;;;;;;5097668;28;20295;-66
2024/01/03 02:43:06;;;;;;;26.63;17.20;;;5.40;56.80;;;;;;5100199;28;20280;-67
2024/01/03 02:45:35;;;;;;;27.73;17.63;;;5.40;57.10;;;;;;5098190;28;20326;-67
2024/01/03 02:48:04;;;;;;;23.00;16.53;;;5.50;57.10;;;;;;5080632;28;20300;-67
2024/01/03 02:50:32;;;;;;;25.33;17.37;;;5.40;55.50;;;;;;5098297;28;20301;-67
2024/01/03 02:53:02;;;;;;;25.40;17.40;;;5.40;57.10;;;;;;5099360;28;20219;-68
2024/01/03 02:55:30;;;;;;;22.83;16.27;;;5.40;56.60;;;;;;5094434;28;20219;-67
2024/01/03 02:58:00;;;;;;;26.37;17.40;;;5.40;57.00;;;;;;5078658;28;20285;-66
2024/01/03 03:00:29;;;;;;;24.77;17.10;;;5.40;58.10;;;;;;5082253;27;20219;-67
2024/01/03 03:02:58;;;;;;;28.00;16.93;;;5.40;57.90;;;;;;5079886;28;20222;-68
2024/01/03 03:05:26;;;;;;;25.37;17.20;;;5.40;57.90;;;;;;5102730;27;20369;-68
2024/01/03 03:07:55;;;;;;;25.60;17.03;;;5.40;57.70;;;;;;5083721;28;20412;-68
2024/01/03 03:10:23;;;;;;;25.17;16.93;;;5.30;58.10;;;;;;5102712;28;20283;-67
2024/01/03 03:12:52;;;;;;;25.50;16.77;;;5.30;56.90;;;;;;5102163;28;20226;-67
2024/01/03 03:15:22;;;;;;;26.87;16.87;;;5.30;57.70;;;;;;5085881;28;20226;-66
2024/01/03 03:17:51;;;;;;;27.50;17.73;;;5.30;58.20;;;;;;5098562;28;20219;-68
2024/01/03 03:20:20;;;;;;;24.73;17.27;;;5.30;57.40;;;;;;5084504;27;20236;-67
2024/01/03 03:22:48;;;;;;;25.43;17.13;;;5.30;58.20;;;;;;5114987;27;20229;-67
2024/01/03 03:25:17;;;;;;;25.73;17.10;;;5.30;58.20;;;;;;5103499;27;20284;-67
2024/01/03 03:27:45;;;;;;;26.30;16.73;;;5.30;60.60;;;;;;5117933;27;20242;-67
2024/01/03 03:30:14;;;;;;;25.67;16.53;;;5.30;58.40;;;;;;5124586;27;20243;-66
2024/01/03 03:32:45;;;;;;;25.63;16.87;;;5.30;60.00;;;;;;5100325;27;20218;-69
2024/01/03 03:35:15;;;;;;;29.10;16.97;;;5.40;59.00;;;;;;5122452;27;20234;-67
2024/01/03 03:37:43;;;;;;;24.83;16.13;;;5.30;57.40;;;;;;5101676;27;20236;-66
2024/01/03 03:40:12;;;;;;;22.87;15.90;;;5.40;57.80;;;;;;5097926;27;20225;-67
2024/01/03 03:42:45;;;;;;;25.80;16.87;;;5.30;57.50;;;;;;5117739;27;20229;-68
2024/01/03 03:45:13;;;;;;;21.50;15.33;;;5.40;57.80;;;;;;5102045;28;20295;-68
2024/01/03 03:47:43;;;;;;;25.87;16.73;;;5.40;57.60;;;;;;5101395;27;20300;-68
2024/01/03 03:50:12;;;;;;;21.80;15.67;;;5.40;59.60;;;;;;5116320;27;20224;-69
2024/01/03 03:52:40;;;;;;;26.17;15.60;;;5.30;59.20;;;;;;5115635;27;20284;-67
2024/01/03 03:55:09;;;;;;;21.53;15.17;;;5.30;56.50;;;;;;5112788;27;20228;-68
2024/01/03 03:57:38;;;;;;;24.43;16.07;;;5.30;58.80;;;;;;5114849;27;20269;-67
2024/01/03 04:00:08;;;;;;;22.43;14.87;;;5.30;59.10;;;;;;5101466;28;20229;-68
2024/01/03 04:02:39;;;;;;;23.60;15.33;;;5.30;58.90;;;;;;5119603;27;20249;-67
2024/01/03 04:05:10;;;;;;;21.87;15.73;;;5.30;69.20;;;;;;5112227;27;20223;-68
2024/01/03 04:07:38;;;;;;;21.50;15.43;;;5.30;59.50;;;;;;5120242;27;20232;-68
2024/01/03 04:10:08;;;;;;;24.17;15.60;;;5.30;55.40;;;;;;5098152;28;20245;-66
2024/01/03 04:12:38;;;;;;;22.67;15.10;;;5.40;58.70;;;;;;5116483;27;20663;-66
2024/01/03 04:15:06;;;;;;;19.50;13.30;;;5.30;56.60;;;;;;5118261;28;20226;-68
2024/01/03 04:17:36;;;;;;;19.87;14.43;;;5.20;54.10;;;;;;5118815;27;20305;-68
2024/01/03 04:20:05;;;;;;;21.80;15.10;;;5.20;58.50;;;;;;5103105;28;20220;-67
2024/01/03 04:22:35;;;;;;;21.43;14.27;;;5.20;54.70;;;;;;5120058;27;20293;-68
2024/01/03 04:25:04;;;;;;;21.90;15.67;;;5.20;55.60;;;;;;5100381;28;20231;-67
2024/01/03 04:27:32;;;;;;;20.70;14.27;;;5.20;52.00;;;;;;5117595;27;20228;-69
2024/01/03 04:30:01;;;;;;;19.13;14.87;;;5.20;59.00;;;;;;5104049;27;20225;-69
2024/01/03 04:32:29;;;;;;;20.73;14.13;;;5.20;55.50;;;;;;5105420;27;20216;-68
2024/01/03 04:34:59;;;;;;;18.97;14.53;;;5.20;54.20;;;;;;5100018;27;20218;-68
2024/01/03 04:37:28;;;;;;;20.53;14.30;;;5.30;52.20;;;;;;5125450;27;20214;-68
2024/01/03 04:39:58;;;;;;;20.43;14.30;;;5.20;53.30;;;;;;5120810;27;20246;-68
2024/01/03 04:42:27;;;;;;;20.00;14.27;;;5.30;57.40;;;;;;5128158;27;20226;-66
2024/01/03 04:44:55;;;;;;;21.37;14.37;;;5.20;55.50;;;;;;5107136;27;20238;-67
2024/01/03 04:47:24;;;;;;;21.57;14.53;;;5.30;57.40;;;;;;5124701;27;20310;-70
2024/01/03 04:49:54;;;;;;;20.10;13.90;;;5.40;54.70;;;;;;5096878;27;20221;-71
2024/01/03 04:52:23;;;;;;;22.17;14.23;;;5.20;51.50;;;;;;5111120;27;20253;-67
2024/01/03 04:54:52;;;;;;;19.53;13.57;;;5.20;52.50;;;;;;5108093;27;20736;-67
2024/01/03 04:57:22;;;;;;;19.37;13.67;;;5.30;53.60;;;;;;5120690;27;20215;-67
2024/01/03 04:59:50;;;;;;;19.63;13.13;;;5.30;52.20;;;;;;5123208;27;20216;-71
2024/01/03 05:02:19;;;;;;;19.10;12.97;;;5.20;51.70;;;;;;5120327;27;20218;-68
2024/01/03 05:04:48;;;;;;;19.80;14.20;;;5.30;54.90;;;;;;5134340;27;20220;-68
2024/01/03 05:07:17;;;;;;;19.23;13.53;;;5.30;53.70;;;;;;5120909;27;20241;-69
2024/01/03 05:09:46;;;;;;;18.60;13.50;;;5.30;53.50;;;;;;5120487;27;20253;-69
2024/01/03 05:12:14;;;;;;;23.10;14.60;;;5.10;53.80;;;;;;5097561;27;20331;-68
2024/01/03 05:14:44;;;;;;;17.20;12.77;;;5.10;53.50;;;;;;5119062;27;20291;-68
2024/01/03 05:17:13;;;;;;;20.27;13.17;;;5.20;54.90;;;;;;5098316;28;20284;-68
2024/01/03 05:19:43;;;;;;;21.13;14.50;;;5.10;54.50;;;;;;5124945;27;20233;-68
2024/01/03 05:22:11;;;;;;;19.60;13.73;;;5.20;54.20;;;;;;5120412;27;20327;-68
2024/01/03 05:24:40;;;;;;;21.47;14.07;;;5.30;54.40;;;;;;5119431;27;20211;-67
2024/01/03 05:27:08;;;;;;;19.20;14.50;;;5.30;54.90;;;;;;5126756;27;20279;-68
2024/01/03 05:29:37;;;;;;;17.93;12.83;;;5.40;55.60;;;;;;5099096;27;20409;-68
2024/01/03 05:32:07;;;;;;;19.13;13.63;;;5.30;54.50;;;;;;5119972;27;20320;-68
2024/01/03 05:34:36;;;;;;;20.50;14.23;;;5.30;54.80;;;;;;5122879;27;20223;-68
2024/01/03 05:37:06;;;;;;;21.27;13.47;;;5.30;54.40;;;;;;5096114;27;20280;-68
2024/01/03 05:39:34;;;;;;;17.17;12.90;;;5.40;55.80;;;;;;5115232;27;20737;-67
2024/01/03 05:42:03;;;;;;;17.73;14.23;;;5.30;54.70;;;;;;5109354;27;20218;-68
2024/01/03 05:44:31;;;;;;;17.27;12.87;;;5.30;54.90;;;;;;5121329;27;20252;-68
2024/01/03 05:47:01;;;;;;;17.73;12.80;;;5.40;53.80;;;;;;5117077;27;20818;-68
2024/01/03 05:49:31;;;;;;;18.10;12.67;;;5.30;53.70;;;;;;5121674;27;20289;-69
2024/01/03 05:52:00;;;;;;;19.27;14.20;;;5.20;54.80;;;;;;5114007;27;20225;-66
2024/01/03 05:54:29;;;;;;;20.33;14.53;;;5.40;54.40;;;;;;5097958;27;20214;-68
2024/01/03 05:56:59;;;;;;;23.00;15.00;;;5.30;54.50;;;;;;5096623;28;20242;-68
2024/01/03 05:59:28;;;;;;;19.13;14.13;;;5.40;54.40;;;;;;5103615;27;20638;-68
2024/01/03 06:01:56;;;;;;;17.40;13.37;;;5.30;53.20;;;;;;5108605;27;20236;-70
2024/01/03 06:04:27;;;;;;;19.60;14.37;;;5.30;53.70;;;;;;5104968;27;20695;-73
2024/01/03 06:06:57;;;;;;;19.70;14.37;;;5.30;54.10;;;;;;5098680;27;20728;-70
2024/01/03 06:09:25;;;;;;;20.67;15.10;;;5.30;54.10;;;;;;5119260;27;20312;-68
2024/01/03 06:11:54;;;;;;;19.13;14.30;;;5.50;53.50;;;;;;5116875;27;20719;-69
2024/01/03 06:14:22;;;;;;;17.73;14.10;;;5.50;54.00;;;;;;5124246;27;20290;-69
2024/01/03 06:16:51;;;;;;;19.37;14.03;;;5.50;53.70;;;;;;5105248;27;20704;-68
2024/01/03 06:19:20;;;;;;;19.50;13.57;;;5.50;53.30;;;;;;5123946;27;20756;-69
2024/01/03 06:21:48;;;;;;;19.67;14.83;;;5.40;53.60;;;;;;5117208;27;20250;-67
2024/01/03 06:24:18;;;;;;;19.37;14.70;;;5.50;52.80;;;;;;5111189;27;20214;-67
2024/01/03 06:26:47;;;;;;;20.30;15.20;;;5.50;53.20;;;;;;5121431;27;20452;-68
2024/01/03 06:29:15;;;;;;;19.77;14.30;;;5.60;52.20;;;;;;5106281;27;20223;-69
2024/01/03 06:31:44;;;;;;;18.80;13.97;;;5.60;52.90;;;;;;5117311;27;20225;-68
2024/01/03 06:34:12;;;;;;;17.93;14.33;;;5.60;52.30;;;;;;5113275;27;20257;-68
2024/01/03 06:36:42;;;;;;;18.10;14.53;;;5.60;52.00;;;;;;5097596;27;20235;-68
2024/01/03 06:39:10;;;;;;;20.70;14.33;;;5.60;51.80;;;;;;5098995;27;20305;-68
2024/01/03 06:41:40;;;;;;;18.90;14.87;;;5.50;52.30;;;;;;5098661;28;20222;-68
2024/01/03 06:44:09;;;;;;;20.17;15.57;;;5.50;51.80;;;;;;5094182;27;20230;-69
2024/01/03 06:46:38;;;;;;;20.50;14.67;;;5.60;52.20;;;;;;5097626;28;20757;-68
2024/01/03 06:49:08;;;;;;;19.73;15.43;;;5.50;52.90;;;;;;5114973;27;20321;-68
2024/01/03 06:51:38;;;;;;;23.30;15.97;;;5.60;52.20;;;;;;5098352;27;20224;-70
2024/01/03 06:54:06;;;;;;;20.03;16.90;;;5.60;51.90;;;;;;5116527;27;20229;-68
2024/01/03 06:56:35;;;;;;;20.67;15.23;;;5.70;52.90;;;;;;5098461;27;20230;-69
2024/01/03 06:59:05;;;;;;;19.73;15.43;;;5.70;51.40;;;;;;5118245;27;20306;-68
2024/01/03 07:01:34;;;;;;;19.77;15.60;;;5.70;51.70;;;;;;5096933;28;20264;-68
2024/01/03 07:04:03;;;;;;;18.70;15.60;;;5.70;51.90;;;;;;5099700;27;20846;-67
2024/01/03 07:06:32;;;;;;;23.13;16.53;;;5.70;51.00;;;;;;5121000;27;20219;-67
2024/01/03 07:09:00;;;;;;;24.77;17.10;;;5.70;52.10;;;;;;5105460;27;20232;-69
2024/01/03 07:11:29;;;;;;;20.50;15.03;;;5.70;52.40;;;;;;5111912;27;20233;-67
2024/01/03 07:13:58;;;;;;;22.83;16.70;;;5.70;51.80;;;;;;5103831;27;20307;-68
2024/01/03 07:16:29;;;;;;;19.67;15.23;;;5.70;51.50;;;;;;5114041;27;20233;-68
2024/01/03 07:18:58;;;;;;;17.77;15.43;;;5.70;51.80;;;;;;5110038;27;20286;-67
2024/01/03 07:21:27;;;;;;;18.63;15.20;;;5.70;51.40;;;;;;5092438;28;20307;-68
2024/01/03 07:23:56;;;;;;;21.17;15.67;;;5.70;51.50;;;;;;5077795;28;20578;-67
2024/01/03 07:26:27;;;;;;;21.13;15.73;;;5.80;51.10;;;;;;5094760;28;20229;-69
2024/01/03 07:28:56;;;;;;;19.33;15.47;;;5.70;52.10;;;;;;5092779;27;20223;-67
2024/01/03 07:31:25;;;;;;;20.73;15.53;;;5.70;51.40;;;;;;5080594;28;20274;-67
2024/01/03 07:33:55;;;;;;;19.80;15.50;;;5.70;51.10;;;;;;5091018;28;20292;-66
2024/01/03 07:36:23;;;;;;;19.33;15.53;;;5.70;51.40;;;;;;5080314;28;20212;-67
2024/01/03 07:38:52;;;;;;;19.53;15.23;;;5.70;50.60;;;;;;5085395;27;20309;-67
2024/01/03 07:41:21;;;;;;;18.77;15.23;;;5.70;50.90;;;;;;5097974;27;20234;-66
2024/01/03 07:43:49;;;;;;;20.00;15.97;;;5.70;51.20;;;;;;5092792;27;20420;-68
2024/01/03 07:46:19;;;;;;;20.90;16.57;;;5.70;51.30;;;;;;5090685;27;20322;-68
2024/01/03 07:48:50;;;;;;;20.00;15.70;;;5.80;51.40;;;;;;5078218;28;20233;-68
2024/01/03 07:51:21;;;;;;;23.13;16.93;;;5.80;51.60;;;;;;5085513;28;20234;-67
2024/01/03 07:53:49;;;;;;;22.40;17.13;;;5.80;50.10;;;;;;5073960;28;20672;-70
2024/01/03 07:56:18;;;;;;;20.57;16.30;;;5.80;51.00;;;;;;5076770;28;20242;-69
2024/01/03 07:58:47;;;;;;;21.63;17.20;;;5.80;51.30;;;;;;5100604;28;20229;-66
2024/01/03 08:01:15;;;;;;;22.67;17.40;;;5.80;51.00;;;;;;5099593;28;20264;-67
2024/01/03 08:03:44;;;;;;;23.70;17.50;;;5.90;50.90;;;;;;5083571;28;20230;-65
2024/01/03 08:06:21;;;;;;;24.83;18.07;;;6.00;50.20;;;;;;5081391;28;20268;-66
2024/01/03 08:08:50;;;;;;;24.93;17.00;;;6.10;50.90;;;;;;5076438;27;20309;-69
2024/01/03 08:11:18;;;;;;;23.07;17.53;;;6.10;49.80;;;;;;5084778;28;20220;-68
2024/01/03 08:13:47;;;;;;;23.10;18.10;;;6.00;49.60;;;;;;5079724;28;20590;-66
2024/01/03 08:16:16;;;;;;;27.33;19.83;;;6.00;50.10;;;;;;5070181;28;20734;-67
2024/01/03 08:18:46;;;;;;;23.23;17.77;;;6.00;51.00;;;;;;5095750;28;20230;-67
2024/01/03 08:21:15;;;;;;;21.73;16.50;;;6.00;49.10;;;;;;5099764;27;20735;-68
2024/01/03 08:23:46;;;;;;;24.20;17.50;;;6.00;51.00;;;;;;5075725;28;20636;-67
2024/01/03 08:26:14;;;;;;;22.20;17.40;;;6.10;50.30;;;;;;5081003;28;20969;-68
2024/01/03 08:28:45;;;;;;;21.73;17.43;;;6.10;49.50;;;;;;5103041;27;20293;-67
2024/01/03 08:31:16;;;;;;;21.53;16.90;;;6.10;48.90;;;;;;5080321;28;20229;-67
2024/01/03 08:33:46;;;;;;;19.70;16.37;;;6.10;49.50;;;;;;5103915;27;20599;-69
2024/01/03 08:36:16;;;;;;;25.60;16.27;;;6.00;49.10;;;;;;5084360;27;20238;-67
2024/01/03 08:38:46;;;;;;;21.80;16.83;;;6.10;49.50;;;;;;5084201;28;20255;-68
2024/01/03 08:41:16;;;;;;;22.13;16.20;;;6.10;48.60;;;;;;5085741;28;20310;-67
2024/01/03 08:43:46;;;;;;;20.13;15.03;;;6.10;49.40;;;;;;5092656;27;20448;-68
2024/01/03 08:46:15;;;;;;;21.13;16.33;;;6.10;48.60;;;;;;5105637;27;20283;-67
2024/01/03 08:48:45;;;;;;;23.87;16.67;;;6.10;48.50;;;;;;5087531;28;20642;-67
2024/01/03 08:51:16;;;;;;;19.77;15.93;;;6.20;48.50;;;;;;5086850;28;20226;-67
2024/01/03 08:53:46;;;;;;;18.97;15.87;;;6.20;48.30;;;;;;5099517;27;20231;-67
2024/01/03 08:56:16;;;;;;;20.53;15.57;;;6.10;47.50;;;;;;5104288;27;20497;-67
2024/01/03 08:58:46;;;;;;;22.03;17.50;;;6.20;48.80;;;;;;5080803;27;20230;-68
2024/01/03 09:01:18;;;;;;;20.27;16.47;;;6.20;49.50;;;;;;5103183;27;20218;-67
2024/01/03 09:03:47;;;;;;;23.73;18.50;;;6.10;49.30;;;;;;5103181;27;20226;-67
2024/01/03 09:06:19;;;;;;;23.10;16.90;;;6.20;50.30;;;;;;5079627;28;20315;-68
2024/01/03 09:08:51;;;;;;;21.87;16.93;;;6.20;48.50;;;;;;5081212;27;20231;-69
2024/01/03 09:11:23;;;;;;;21.00;16.80;;;6.40;48.60;;;;;;5096539;28;20852;-68
2024/01/03 09:13:53;;;;;;;21.40;16.27;;;6.50;49.30;;;;;;5093451;27;20234;-68
2024/01/03 09:16:23;;;;;;;22.60;16.33;;;6.40;47.10;;;;;;5084596;28;20221;-66
2024/01/03 09:18:52;;;;;;;19.07;15.57;;;6.40;48.30;;;;;;5102839;27;20314;-68
2024/01/03 09:21:21;;;;;;;19.13;15.20;;;6.30;46.90;;;;;;5074889;28;20642;-66
2024/01/03 09:23:52;;;;;;;18.90;15.70;;;6.20;48.50;;;;;;5075295;28;20311;-68
2024/01/03 09:26:22;;;;;;;21.10;15.97;;;6.30;48.40;;;;;;5097328;28;20335;-67
2024/01/03 09:28:52;;;;;;;22.77;16.90;;;6.30;49.20;;;;;;5094170;27;20626;-66
2024/01/03 09:31:21;;;;;;;18.97;15.77;;;6.40;49.40;;;;;;5077033;28;20226;-66
2024/01/03 09:33:50;;;;;;;26.00;16.70;;;6.30;49.40;;;;;;5073391;28;20638;-66
2024/01/03 09:36:19;;;;;;;22.47;16.67;;;6.40;49.70;;;;;;5095186;28;20217;-65
2024/01/03 09:38:55;;;;;;;21.23;15.53;;;6.30;49.20;;;;;;5078699;28;20226;-66
2024/01/03 09:41:25;;;;;;;17.60;13.80;;;6.40;49.30;;;;;;5093910;27;20250;-65
2024/01/03 09:43:55;;;;;;;20.43;15.67;;;6.30;48.00;;;;;;5093882;28;20234;-67
2024/01/03 09:46:24;;;;;;;18.37;14.33;;;6.40;49.70;;;;;;5070176;28;20270;-66
2024/01/03 09:48:53;;;;;;;20.67;16.70;;;6.30;48.90;;;;;;5093920;27;20694;-67
2024/01/03 09:51:22;;;;;;;20.77;16.83;;;6.40;49.10;;;;;;5093483;27;20226;-67
2024/01/03 09:53:54;;;;;;;19.47;15.03;;;6.40;48.20;;;;;;5099504;28;20704;-67
2024/01/03 09:56:25;;;;;;;21.30;16.20;;;6.40;48.00;;;;;;5098531;27;20590;-67
2024/01/03 09:58:54;;;;;;;20.53;16.53;;;6.40;48.20;;;;;;5077134;28;20370;-68
2024/01/03 10:01:22;;;;;;;24.03;16.57;;;6.40;47.40;;;;;;5093059;27;20216;-67
2024/01/03 10:03:51;;;;;;;21.57;17.43;;;6.50;47.50;;;;;;5069211;28;20710;-66
2024/01/03 10:06:20;;;;;;;21.20;16.03;;;6.50;47.80;;;;;;5088630;27;20231;-66
2024/01/03 10:08:58;;;;;;;20.53;15.87;;;6.50;47.40;;;;;;5083285;27;20223;-68
2024/01/03 10:11:29;;;;;;;22.93;16.90;;;6.50;47.60;;;;;;5093283;27;20222;-67
2024/01/03 10:14:14;;;;;;;20.33;15.70;;;6.50;47.90;;;;;;5075674;28;20233;-66
2024/01/03 10:16:43;;;;;;;20.93;15.90;;;6.50;47.10;;;;;;5076366;28;20216;-67
2024/01/03 10:19:14;;;;;;;17.93;15.03;;;6.50;48.00;;;;;;5074398;28;20343;-66
2024/01/03 10:21:51;;;;;;;24.90;17.60;;;6.50;48.10;;;;;;5083914;28;20714;-68
2024/01/03 10:24:22;;;;;;;22.60;17.37;;;6.50;48.40;;;;;;5093891;28;20305;-72
2024/01/03 10:26:52;;;;;;;27.27;18.70;;;6.60;47.80;;;;;;5097939;28;20237;-71
2024/01/03 10:29:22;;;;;;;24.27;18.43;;;6.60;47.50;;;;;;5079841;28;20683;-69
2024/01/03 10:31:51;;;;;;;26.60;18.77;;;6.60;48.10;;;;;;5101271;27;20634;-70
2024/01/03 10:34:24;;;;;;;23.67;18.33;;;6.60;48.30;;;;;;5079162;28;20227;-70
2024/01/03 10:36:56;;;;;;;24.13;18.57;;;6.60;48.00;;;;;;5082873;28;20255;-71
2024/01/03 10:39:26;;;;;;;25.27;18.70;;;6.60;47.40;;;;;;5097199;28;20225;-71
2024/01/03 10:41:57;;;;;;;24.67;18.77;;;6.70;47.00;;;;;;5094746;28;20234;-71
2024/01/03 10:44:27;;;;;;;25.20;18.33;;;6.70;47.40;;;;;;5071334;28;20309;-71
2024/01/03 10:46:57;;;;;;;24.73;18.03;;;6.70;47.90;;;;;;5091753;27;20215;-71
2024/01/03 10:49:26;;;;;;;25.70;18.43;;;6.70;46.50;;;;;;5098944;27;20234;-73
2024/01/03 10:52:02;;;;;;;24.10;17.47;;;6.80;46.40;;;;;;5094604;27;20225;-71
2024/01/03 10:54:42;;;;;;;21.40;17.27;;;6.80;46.70;;;;;;5073966;28;20225;-70
2024/01/03 10:57:17;;;;;;;22.23;17.33;;;6.90;46.00;;;;;;5075555;28;20341;-71
2024/01/03 10:59:57;;;;;;;24.37;17.70;;;6.90;46.50;;;;;;5080640;28;22430;-72
2024/01/03 11:02:36;;;;;;;24.17;17.73;;;7.00;45.90;;;;;;5088739;28;20716;-69
2024/01/03 11:05:14;;;;;;;23.47;17.60;;;7.00;50.60;;;;;;5077451;28;20230;-70
2024/01/03 11:07:47;;;;;;;22.03;17.27;;;7.00;46.00;;;;;;5086934;28;20222;-70
2024/01/03 11:10:49;;;;;;;23.67;16.17;;;7.00;45.70;;;;;;5088924;28;20220;-70
2024/01/03 11:13:29;;;;;;;22.97;16.60;;;7.10;45.50;;;;;;5077193;28;20225;-72
2024/01/03 11:15:58;;;;;;;22.30;16.50;;;7.00;45.40;;;;;;5075162;28;20833;-72
2024/01/03 11:18:52;;;;;;;23.30;17.23;;;7.20;45.10;;;;;;5080654;28;20222;-71
2024/01/03 11:21:42;;;;;;;20.43;16.00;;;7.20;45.00;;;;;;5096221;28;20233;-71
2024/01/03 11:24:50;;;;;;;19.50;16.13;;;7.20;45.00;;;;;;5076006;28;20292;-72
2024/01/03 11:27:21;;;;;;;20.40;15.00;;;7.20;45.00;;;;;;5078652;28;20228;-71
2024/01/03 11:29:56;;;;;;;21.23;16.60;;;7.30;44.60;;;;;;5078893;28;20217;-71
2024/01/03 11:32:36;;;;;;;21.87;16.10;;;7.30;44.60;;;;;;5073040;28;20313;-70
2024/01/03 11:35:09;;;;;;;21.53;15.97;;;7.30;45.40;;;;;;5102619;27;20233;-71
2024/01/03 11:37:40;;;;;;;21.73;15.40;;;7.40;44.70;;;;;;5080601;28;20306;-72
2024/01/03 11:40:20;;;;;;;23.73;17.27;;;7.40;44.30;;;;;;5093481;27;20226;-70
2024/01/03 11:42:58;;;;;;;20.10;15.40;;;7.40;44.10;;;;;;5095434;27;20317;-70
2024/01/03 11:45:29;;;;;;;21.97;15.57;;;7.50;44.40;;;;;;5099018;27;20293;-70
2024/01/03 11:48:02;;;;;;;22.97;15.77;;;7.50;44.20;;;;;;5073951;27;20226;-70
2024/01/03 11:50:35;;;;;;;22.40;16.37;;;7.60;43.80;;;;;;5093696;28;20222;-71
2024/01/03 11:53:10;;;;;;;22.57;16.50;;;7.60;43.00;;;;;;5068581;28;21059;-71
2024/01/03 11:55:50;;;;;;;20.17;15.40;;;7.70;42.60;;;;;;5071298;28;20229;-71
2024/01/03 11:58:18;;;;;;;24.80;17.43;;;7.70;43.20;;;;;;5100699;28;20231;-69
2024/01/03 12:00:49;;;;;;;22.77;16.13;;;7.70;53.90;;;;;;5080965;28;20594;-71
2024/01/03 12:03:26;;;;;;;22.83;16.00;;;7.80;42.20;;;;;;5091245;28;20242;-71
2024/01/03 12:05:56;;;;;;;22.33;16.23;;;7.80;42.10;;;;;;5091337;28;20518;-71
2024/01/03 12:08:25;;;;;;;24.60;16.53;;;7.80;42.20;;;;;;5074803;28;20298;-72
2024/01/03 12:10:54;;;;;;;22.87;17.80;;;7.90;42.60;;;;;;5093313;28;20223;-71
2024/01/03 12:13:22;;;;;;;22.87;16.80;;;7.90;42.90;;;;;;5094034;28;20223;-71
2024/01/03 12:16:02;;;;;;;24.33;16.60;;;8.00;43.30;;;;;;5073759;28;20705;-72
2024/01/03 12:18:31;;;;;;;23.20;16.58;;;8.10;42.10;;;;;;5095417;28;20228;-71
2024/01/03 12:21:11;;;;;;;22.73;15.75;;;8.30;41.50;;;;;;5096657;28;20319;-72
2024/01/03 12:23:39;;;;;;;20.58;14.95;;;8.30;41.80;;;;;;5107357;28;20222;-71
2024/01/03 12:26:10;;;;;;;18.65;13.00;;;8.40;41.50;;;;;;5115155;27;20253;-72
2024/01/03 12:28:39;;;;;;;17.50;12.23;;;8.40;40.70;;;;;;5111438;28;20250;-71
2024/01/03 12:31:19;;;;;;;13.47;11.40;;;8.50;40.90;;;;;;5119346;28;20233;-71
2024/01/03 12:33:48;;;;;;;15.80;9.37;;;8.60;40.80;;;;;;5118210;28;20282;-70
2024/01/03 12:36:16;;;;;;;13.15;8.98;;;8.70;39.80;;;;;;5114319;28;20230;-72
2024/01/03 12:38:45;;;;;;;11.73;8.32;;;8.70;40.00;;;;;;5089424;28;20262;-70
2024/01/03 12:41:14;;;;;;;14.52;8.38;;;8.70;40.10;;;;;;5091259;28;20230;-71
2024/01/03 12:43:42;;;;;;;10.70;6.57;;;8.80;39.90;;;;;;5118214;27;20286;-73
2024/01/03 12:46:11;;;;;;;11.00;6.57;;;8.80;40.30;;;;;;5107484;27;20276;-70
2024/01/03 12:48:41;;;;;;;11.38;6.30;;;8.90;39.80;;;;;;5100313;27;20823;-72
2024/01/03 12:51:10;;;;;;;10.25;5.50;;;8.90;39.20;;;;;;5117430;27;20334;-71
2024/01/03 12:53:38;;;;;;;6.88;4.35;;;8.90;38.50;;;;;;5105997;27;20712;-71